^^
Station Historical Data
Daily Summary for February 10, 2018 Units:  Metric    English   Both
« Previous Day
Next Day »
Daily Weekly Monthly Yearly Custom
  High: Low: Average:
Temperature: -17.8 °C 16.1 °C 19.1 °C
Dew Point: -17.8 °C 10.5 °C 12.8 °C
Humidity: Humidity% 50% 67%
Wind Speed: 0km/h -1609.1km/h -20.3km/h
Wind Gust: 0km/h - -
Wind- -
Pressure: 0 hPa 1002.3 hPa -
Precipitation: 0.25 mm    
Historical Graphs
 
 
Tabular Data for February 10, 2018
Time Temperature Dew Point Pressure Wind Wind Speed Wind Gust Humidity Rainfall Rate (Hourly) solar Conditions
-17.8 °C -17.8 °C 0 hPa Calm     Humidity% 0 mm SoftwareType W/m2 Conditions
07:58 16.1 °C 13.4 °C 1003.9 hPa North -1609.1 km/h -1607.7 km/h 84% 0 mm meteobridge W/m2
08:04 16.3 °C 13.4 °C 1003.9 hPa NNE 9.7 km/h 25.7 km/h 83% 0 mm meteobridge W/m2
08:11 16.4 °C 13.3 °C 1003.9 hPa NNE 9.7 km/h 20.9 km/h 82% 0 mm meteobridge W/m2
08:16 16.8 °C 13.5 °C 1004.3 hPa NNE 17.7 km/h 20.9 km/h 81% 0 mm meteobridge W/m2
08:23 17.2 °C 13.5 °C 1004.3 hPa North 11.1 km/h 24.1 km/h 79% 0 mm meteobridge W/m2
08:29 17.6 °C 13.5 °C 1004.3 hPa NNE 9.7 km/h 20.9 km/h 77% 0 mm meteobridge W/m2
08:35 17.9 °C 13.6 °C 1004.3 hPa North 14.3 km/h 19.3 km/h 76% 0 mm meteobridge W/m2
08:41 18.2 °C 13.7 °C 1004.3 hPa North 14.3 km/h 20.9 km/h 75% 0 mm meteobridge W/m2
08:47 18.3 °C 13.6 °C 1004.3 hPa NNE 17.7 km/h 20.9 km/h 74% 0 mm meteobridge W/m2
08:53 18.4 °C 13.5 °C 1004.6 hPa North 9.7 km/h 19.3 km/h 73% 0 mm meteobridge W/m2
08:59 18.4 °C 13.3 °C 1004.6 hPa North 16.3 km/h 17.7 km/h 72% 0 mm meteobridge W/m2
09:05 18.4 °C 13 °C 1004.6 hPa NNW 14.3 km/h 25.7 km/h 71% 0 mm meteobridge W/m2
09:12 18.6 °C 13.2 °C 1004.6 hPa North 6.4 km/h 17.7 km/h 71% 0 mm meteobridge W/m2
09:18 18.7 °C 13.1 °C 1004.6 hPa North 7.9 km/h 22.5 km/h 70% 0 mm meteobridge W/m2
09:24 18.9 °C 13.1 °C 1004.6 hPa NNE 4.7 km/h 17.7 km/h 69% 0 mm meteobridge W/m2
09:30 19 °C 13.4 °C 1004.6 hPa NNW 6.4 km/h 19.3 km/h 70% 0 mm meteobridge W/m2
09:36 19.1 °C 13.5 °C 1004.6 hPa North 13 km/h 16.1 km/h 70% 0 mm meteobridge W/m2
09:42 19 °C 13.2 °C 1004.6 hPa North 6.4 km/h 17.7 km/h 69% 0 mm meteobridge W/m2
09:48 19 °C 13.2 °C 1004.6 hPa North 6.4 km/h 19.3 km/h 69% 0 mm meteobridge W/m2
09:55 19.3 °C 13.2 °C 1004.6 hPa NNE 4.7 km/h 17.7 km/h 68% 0 mm meteobridge W/m2
10:01 19.8 °C 13.3 °C 1004.6 hPa NNE 7.9 km/h 16.1 km/h 66% 0 mm meteobridge W/m2
10:07 20.2 °C 13.2 °C 1005 hPa NNE 6.4 km/h 16.1 km/h 64% 0 mm meteobridge W/m2
10:13 20.6 °C 13.6 °C 1005 hPa NNE 11.1 km/h 17.7 km/h 64% 0 mm meteobridge W/m2
10:19 20.4 °C 13.1 °C 1005 hPa NNE 9.7 km/h 20.9 km/h 63% 0 mm meteobridge W/m2
10:25 20.7 °C 13.4 °C 1004.6 hPa NNE 6.4 km/h 11.3 km/h 63% 0 mm meteobridge W/m2
10:31 20.8 °C 13.5 °C 1004.6 hPa North 7.9 km/h 19.3 km/h 63% 0 mm meteobridge W/m2
10:37 21.1 °C 13.8 °C 1004.6 hPa North 9.7 km/h 16.1 km/h 63% 0 mm meteobridge W/m2
10:48 21.1 °C 13.5 °C 1004.6 hPa North 16.3 km/h 22.5 km/h 62% 0 mm meteobridge W/m2
10:54 20.8 °C 13.5 °C 1004.6 hPa NNE 6.4 km/h 16.1 km/h 63% 0 mm meteobridge W/m2
11:00 21.1 °C 13.5 °C 1004.6 hPa NNW 19.5 km/h 24.1 km/h 62% 0 mm meteobridge W/m2
11:06 21.1 °C 13.3 °C 1004.6 hPa North 4.7 km/h 19.3 km/h 61% 0 mm meteobridge W/m2
11:12 21.7 °C 13.6 °C 1004.3 hPa North 19.5 km/h 19.5 km/h 60% 0 mm meteobridge W/m2
11:20 21.8 °C 13.7 °C 1004.3 hPa North 6.4 km/h 11.3 km/h 60% 0 mm meteobridge W/m2
11:26 22.1 °C 14 °C 1004.3 hPa NNW 17.7 km/h 20.9 km/h 60% 0 mm meteobridge W/m2
11:32 22 °C 13.6 °C 1003.9 hPa NNE 11.1 km/h 19.3 km/h 59% 0 mm meteobridge W/m2
11:38 21.7 °C 13.1 °C 1003.9 hPa NNW 17.7 km/h 24.1 km/h 58% 0 mm meteobridge W/m2
11:45 21.9 °C 13 °C 1003.9 hPa NNE 17.7 km/h 22.5 km/h 57% 0 mm meteobridge W/m2
11:51 21.9 °C 13 °C 1003.9 hPa NNE 7.9 km/h 19.3 km/h 57% 0 mm meteobridge W/m2
11:57 22 °C 13.4 °C 1003.9 hPa NE 3.2 km/h 16.1 km/h 58% 0 mm meteobridge W/m2
12:03 22.7 °C 13.5 °C 1003.9 hPa NE 9.7 km/h 17.7 km/h 56% 0 mm meteobridge W/m2
12:09 22.9 °C 13.7 °C 1003.6 hPa NE 11.1 km/h 25.7 km/h 56% 0 mm meteobridge W/m2
12:16 23.1 °C 13.3 °C 1003.6 hPa North 4.7 km/h 9.7 km/h 54% 0 mm meteobridge W/m2
12:22 23.3 °C 13.2 °C 1003.3 hPa NE 11.1 km/h 11.3 km/h 53% 0 mm meteobridge W/m2
12:28 23.7 °C 13.3 °C 1003.3 hPa North 16.3 km/h 22.5 km/h 52% 0 mm meteobridge W/m2
12:34 23.3 °C 12.9 °C 1003.3 hPa NNE 24.1 km/h 25.7 km/h 52% 0 mm meteobridge W/m2
12:40 23.3 °C 12.9 °C 1003.3 hPa NNE 13 km/h 13 km/h 52% 0 mm meteobridge W/m2
12:46 24.2 °C 13.1 °C 1003.3 hPa North 16.3 km/h 27.4 km/h 50% 0 mm meteobridge W/m2
12:52 23.2 °C 12.5 °C 1003.3 hPa NNE 11.1 km/h 17.7 km/h 51% 0 mm meteobridge W/m2
12:58 22.6 °C 12.2 °C 1003.3 hPa NNE 9.7 km/h 19.3 km/h 52% 0 mm meteobridge W/m2
13:04 22.3 °C 12.3 °C 1003.3 hPa NNE 7.9 km/h 19.3 km/h 53% 0 mm meteobridge W/m2
13:10 22.3 °C 12.3 °C 1003.3 hPa NNW 6.4 km/h 17.7 km/h 53% 0 mm meteobridge W/m2
13:16 22.2 °C 12.2 °C 1003.3 hPa NNW 1.4 km/h 6.4 km/h 53% 0 mm meteobridge W/m2
13:23 22.2 °C 12.2 °C 1003.3 hPa NNE 3.2 km/h 16.1 km/h 53% 0 mm meteobridge W/m2
13:29 22.2 °C 11.9 °C 1002.9 hPa NNE 11.1 km/h 16.1 km/h 52% 0 mm meteobridge W/m2
13:35 22.3 °C 12 °C 1002.9 hPa NNW 9.7 km/h 9.7 km/h 52% 0 mm meteobridge W/m2
13:41 22.3 °C 11.7 °C 1002.9 hPa NNE 7.9 km/h 20.9 km/h 51% 0 mm meteobridge W/m2
13:47 22.4 °C 12.1 °C 1002.9 hPa NNE 3.2 km/h 14.5 km/h 52% 0 mm meteobridge W/m2
13:53 22.4 °C 12.6 °C 1002.9 hPa NE 6.4 km/h 11.3 km/h 54% 0 mm meteobridge W/m2
14:00 22.2 °C 11.6 °C 1002.6 hPa North 16.3 km/h 19.3 km/h 51% 0 mm meteobridge W/m2
14:06 21.7 °C 12 °C 1002.6 hPa NNW 14.3 km/h 25.7 km/h 54% 0 mm meteobridge W/m2
14:12 21.3 °C 10.8 °C 1002.6 hPa NNW 16.3 km/h 25.7 km/h 51% 0 mm meteobridge W/m2
14:18 21.3 °C 10.5 °C 1002.3 hPa North 14.3 km/h 24.1 km/h 50% 0 mm meteobridge W/m2
14:24 21.3 °C 11.6 °C 1002.6 hPa SSW 9.7 km/h 9.7 km/h 54% 0 mm meteobridge W/m2
14:30 20.8 °C 12.7 °C 1002.6 hPa ESE 4.7 km/h 17.7 km/h 60% 0 mm meteobridge W/m2
14:36 20.4 °C 13.1 °C 1002.3 hPa SE 6.4 km/h 12.9 km/h 63% 0 mm meteobridge W/m2
14:42 20.1 °C 13.3 °C 1002.3 hPa SE 9.7 km/h 11.3 km/h 65% 0 mm meteobridge W/m2
14:48 19.8 °C 13.5 °C 1002.3 hPa SE 6.4 km/h 6.4 km/h 67% 0 mm meteobridge W/m2
14:54 19.5 °C 13.2 °C 1002.3 hPa Calm   4.8 km/h 67% 0 mm meteobridge W/m2
15:01 19.3 °C 12.8 °C 1002.3 hPa NNE 7.9 km/h 14.5 km/h 66% 0 mm meteobridge W/m2
15:07 18.9 °C 12.9 °C 1002.3 hPa Calm   6.4 km/h 68% 0 mm meteobridge W/m2
15:13 19 °C 13.4 °C 1002.3 hPa NNE 3.2 km/h 3.2 km/h 70% 0 mm meteobridge W/m2
15:19 19.2 °C 13.4 °C 1002.6 hPa NNE 1.4 km/h 4.8 km/h 69% 0 mm meteobridge W/m2
15:25 19.5 °C 13.7 °C 1002.6 hPa Calm   4.8 km/h 69% 0 mm meteobridge W/m2
15:32 19.8 °C 13.9 °C 1002.6 hPa Calm   3.2 km/h 69% 0 mm meteobridge W/m2
15:38 19.9 °C 13.6 °C 1002.6 hPa East 7.9 km/h 9.7 km/h 67% 0 mm meteobridge W/m2
15:44 19.9 °C 14.3 °C 1002.6 hPa SSE 3.2 km/h 6.4 km/h 70% 0 mm meteobridge W/m2
15:50 19.7 °C 14.3 °C 1002.6 hPa SSE 4.7 km/h 4.8 km/h 71% 0 mm meteobridge W/m2
15:56 19.1 °C 13.7 °C 1002.9 hPa NE 16.3 km/h 20.9 km/h 71% 0 mm meteobridge W/m2
16:02 17.5 °C 13.2 °C 1002.9 hPa NE 17.7 km/h 30.6 km/h 76% 0 mm meteobridge W/m2
16:08 16.9 °C 13.6 °C 1003.3 hPa North 20.9 km/h 25.7 km/h 81% 0 mm meteobridge W/m2
16:14 16.6 °C 13.7 °C 1003.3 hPa NNE 11.1 km/h 20.9 km/h 83% 0 mm meteobridge W/m2
16:20 16.6 °C 13.9 °C 1003.3 hPa NNW 14.3 km/h 20.9 km/h 84% 0 mm meteobridge W/m2
16:27 16.7 °C 13.8 °C 1003.6 hPa North 9.7 km/h 19.3 km/h 83% 0 mm meteobridge W/m2
16:33 16.9 °C 13.4 °C 1003.6 hPa NNW 13 km/h 25.7 km/h 80% 0 mm meteobridge W/m2
16:39 16.9 °C 13 °C 1003.3 hPa North 13 km/h 25.7 km/h 78% 0 mm meteobridge W/m2
16:45 16.6 °C 12.6 °C 1003.3 hPa North 9.7 km/h 16.1 km/h 77% 0 mm meteobridge W/m2
16:51 16.4 °C 12.7 °C 1003.6 hPa North 7.9 km/h 11.3 km/h 79% 0 mm meteobridge W/m2
16:57 16.4 °C 12.7 °C 1003.6 hPa NE 9.7 km/h 20.9 km/h 79% 0 mm meteobridge W/m2
17:03 16.3 °C 13 °C 1003.6 hPa East 3.2 km/h 11.3 km/h 81% 0.25 mm meteobridge W/m2
17:09 16.3 °C 13 °C 1003.6 hPa North 7.9 km/h 9.7 km/h 81% 0.25 mm meteobridge W/m2
17:16 16.3 °C 12.7 °C 1003.9 hPa North 4.7 km/h 8 km/h 79% 0.25 mm meteobridge W/m2
17:22 16.3 °C 12.8 °C 1003.6 hPa North 3.2 km/h 8 km/h 80% 0.25 mm meteobridge W/m2
17:28 16.4 °C 12.9 °C 1003.6 hPa NNW 7.9 km/h 11.3 km/h 80% 0.25 mm meteobridge W/m2
17:34 16.5 °C 12.8 °C 1003.9 hPa NNW 4.7 km/h 11.3 km/h 79% 0.25 mm meteobridge W/m2
17:40 16.7 °C 13 °C 1003.6 hPa NNW 3.2 km/h 9.7 km/h 79% 0.25 mm meteobridge W/m2
17:46 16.8 °C 12.9 °C 1003.9 hPa North 4.7 km/h 9.7 km/h 78% 0 mm meteobridge W/m2
17:52 16.8 °C 12.9 °C 1003.9 hPa NNE 1.4 km/h 6.4 km/h 78% 0 mm meteobridge W/m2
17:59 16.9 °C 13 °C 1003.9 hPa NNE 4.7 km/h 8 km/h 78% 0 mm meteobridge W/m2
18:05 17 °C 13.1 °C 1003.9 hPa NNE 1.4 km/h 4.8 km/h 78% 0 mm meteobridge W/m2
18:11 17.1 °C 13.2 °C 1004.3 hPa NNE 4.7 km/h 4.8 km/h 78% 0 mm meteobridge W/m2
18:17 17.3 °C 13.2 °C 1004.3 hPa NNE 6.4 km/h 6.4 km/h 77% 0 mm meteobridge W/m2
18:23 17.3 °C 13 °C 1004.3 hPa NNE 1.4 km/h 3.2 km/h 76% 0 mm meteobridge W/m2
18:29 17.5 °C 13.2 °C 1004.6 hPa Calm   3.2 km/h 76% 0 mm meteobridge W/m2
18:35 17.6 °C 13.1 °C 1004.6 hPa Calm   4.8 km/h 75% 0 mm meteobridge W/m2
18:42 17.7 °C 13.2 °C 1004.6 hPa East 1.4 km/h 6.4 km/h 75% 0 mm meteobridge W/m2
18:48 17.7 °C 13.4 °C 1005 hPa South 4.7 km/h 8 km/h 76% 0 mm meteobridge W/m2
18:54 17.6 °C 13.5 °C 1005 hPa South 6.4 km/h 14.5 km/h 77% 0 mm meteobridge W/m2
19:00 17.4 °C 13.3 °C 1005 hPa South 4.7 km/h 6.4 km/h 77% 0 mm meteobridge W/m2
19:06 17.4 °C 13.3 °C 1005 hPa South 3.2 km/h 3.2 km/h 77% 0 mm meteobridge W/m2
19:13 17.4 °C 13.3 °C 1005.3 hPa South 3.2 km/h -1607.7 km/h 77% 0 mm meteobridge W/m2
19:20 17.4 °C 13.3 °C 1005.6 hPa North -1609.1 km/h -1607.7 km/h 77% 0 mm meteobridge W/m2
Regenstein, Windhoek, Namibia
Compliments of Weather Underground - 2.5 mb